createdAt,value
2018-03-07T00:01:57.064Z,-2.60
2018-03-07T00:04:24.953Z,-2.40
2018-03-07T00:06:52.111Z,-2.40
2018-03-07T00:09:19.982Z,-2.40
2018-03-07T00:11:47.546Z,-2.40
2018-03-07T00:14:15.084Z,-2.40
2018-03-07T00:16:42.642Z,-2.40
2018-03-07T00:19:10.110Z,-2.50
2018-03-07T00:21:37.656Z,-2.50
2018-03-07T00:24:04.492Z,-2.50
2018-03-07T00:26:31.276Z,-2.50
2018-03-07T00:28:59.377Z,-2.50
2018-03-07T00:31:26.166Z,-2.50
2018-03-07T00:33:52.870Z,-2.40
2018-03-07T00:36:19.596Z,-2.50
2018-03-07T00:38:47.688Z,-2.50
2018-03-07T00:41:14.539Z,-2.50
2018-03-07T00:43:41.384Z,-2.40
2018-03-07T00:46:08.514Z,-2.50
2018-03-07T00:48:37.261Z,-2.50
2018-03-07T00:51:03.978Z,-2.60
2018-03-07T00:53:31.240Z,-2.50
2018-03-07T00:55:57.988Z,-2.60
2018-03-07T00:58:25.854Z,-2.60
2018-03-07T01:00:53.934Z,-2.70
2018-03-07T01:03:20.722Z,-2.70
2018-03-07T01:05:47.399Z,-2.70
2018-03-07T01:08:15.136Z,-2.50
2018-03-07T01:10:42.559Z,-2.60
2018-03-07T01:13:09.578Z,-2.70
2018-03-07T01:15:37.174Z,-2.70
2018-03-07T01:18:04.332Z,-2.70
2018-03-07T01:20:33.952Z,-2.60
2018-03-07T01:23:01.698Z,-2.60
2018-03-07T01:25:29.480Z,-2.60
2018-03-07T01:27:56.275Z,-2.70
2018-03-07T01:30:23.084Z,-2.60
2018-03-07T01:32:50.227Z,-2.70
2018-03-07T01:35:17.181Z,-2.70
2018-03-07T01:37:43.993Z,-2.50
2018-03-07T01:40:12.412Z,-2.50
2018-03-07T01:42:39.465Z,-2.50
2018-03-07T01:45:06.292Z,-2.60
2018-03-07T01:47:32.955Z,-2.70
2018-03-07T01:50:00.605Z,-2.70
2018-03-07T01:52:27.287Z,-2.70
2018-03-07T01:54:54.016Z,-2.70
2018-03-07T01:57:20.761Z,-2.80
2018-03-07T01:59:47.613Z,-2.80
2018-03-07T02:02:14.828Z,-2.90
2018-03-07T02:04:41.513Z,-2.80
2018-03-07T02:07:08.557Z,-2.80
2018-03-07T02:09:35.714Z,-2.80
2018-03-07T02:12:03.381Z,-2.90
2018-03-07T02:14:30.098Z,-2.90
2018-03-07T02:16:56.927Z,-2.80
2018-03-07T02:19:23.888Z,-2.70
2018-03-07T02:21:50.786Z,-2.70
2018-03-07T02:24:17.838Z,-2.70
2018-03-07T02:26:45.813Z,-2.70
2018-03-07T02:29:12.947Z,-2.70
2018-03-07T02:31:40.331Z,-2.80
2018-03-07T02:34:07.329Z,-2.80
2018-03-07T02:36:36.172Z,-2.70
2018-03-07T02:39:05.529Z,-2.80
2018-03-07T02:41:35.104Z,-2.80
2018-03-07T02:44:05.373Z,-2.70
2018-03-07T02:46:35.019Z,-2.70
2018-03-07T02:49:02.572Z,-2.80
2018-03-07T02:51:30.054Z,-2.80
2018-03-07T02:53:56.925Z,-2.90
2018-03-07T02:56:25.291Z,-2.90
2018-03-07T02:58:52.027Z,-2.90
2018-03-07T03:01:19.572Z,-3.00
2018-03-07T03:03:47.273Z,-3.00
2018-03-07T03:06:14.350Z,-2.90
2018-03-07T03:08:40.978Z,-2.90
2018-03-07T03:11:08.645Z,-2.90
2018-03-07T03:13:36.248Z,-2.90
2018-03-07T03:16:03.020Z,-2.90
2018-03-07T03:18:31.006Z,-3.00
2018-03-07T03:20:58.585Z,-3.00
2018-03-07T03:23:25.945Z,-3.00
2018-03-07T03:25:52.649Z,-3.00
2018-03-07T03:28:20.204Z,-3.00
2018-03-07T03:30:46.912Z,-3.10
2018-03-07T03:33:14.686Z,-2.90
2018-03-07T03:35:41.649Z,-3.00
2018-03-07T03:38:09.391Z,-3.00
2018-03-07T03:40:36.036Z,-2.90
2018-03-07T03:43:02.779Z,-3.00
2018-03-07T03:45:29.628Z,-3.00
2018-03-07T03:47:56.578Z,-2.90
2018-03-07T03:50:23.942Z,-3.00
2018-03-07T03:52:50.883Z,-3.00
2018-03-07T03:55:17.640Z,-3.00
2018-03-07T03:57:44.681Z,-3.00
2018-03-07T04:00:12.459Z,-3.10
2018-03-07T04:02:39.104Z,-3.10
2018-03-07T04:05:06.975Z,-3.10
2018-03-07T04:07:33.722Z,-3.10
2018-03-07T04:10:00.775Z,-3.10
2018-03-07T04:12:27.929Z,-3.10
2018-03-07T04:14:56.360Z,-3.10
2018-03-07T04:17:23.370Z,-3.10
2018-03-07T04:19:50.148Z,-3.10
2018-03-07T04:22:17.121Z,-3.10
2018-03-07T04:24:44.201Z,-3.00
2018-03-07T04:27:11.794Z,-2.90
2018-03-07T04:29:38.442Z,-2.90
2018-03-07T04:32:05.546Z,-2.80
2018-03-07T04:34:33.162Z,-2.90
2018-03-07T04:36:59.887Z,-2.90
2018-03-07T04:39:27.435Z,-2.90
2018-03-07T04:41:54.413Z,-2.90
2018-03-07T04:44:21.743Z,-2.90
2018-03-07T04:46:49.282Z,-2.90
2018-03-07T04:49:16.106Z,-2.90
2018-03-07T04:51:43.346Z,-3.00
2018-03-07T04:54:11.315Z,-2.90
2018-03-07T04:56:38.359Z,-3.00
2018-03-07T04:59:05.831Z,-3.20
2018-03-07T05:01:32.560Z,-3.20
2018-03-07T05:04:00.312Z,-3.10
2018-03-07T05:06:28.081Z,-3.10
2018-03-07T05:08:56.401Z,-3.10
2018-03-07T05:11:23.028Z,-3.10
2018-03-07T05:13:50.606Z,-3.10
2018-03-07T05:16:18.461Z,-3.10
2018-03-07T05:18:45.285Z,-3.10
2018-03-07T05:21:12.074Z,-3.10
2018-03-07T05:23:38.691Z,-3.00
2018-03-07T05:26:06.282Z,-3.00
2018-03-07T05:28:33.376Z,-3.00
2018-03-07T05:31:00.833Z,-3.00
2018-03-07T05:33:29.062Z,-2.90
2018-03-07T05:35:57.231Z,-2.90
2018-03-07T05:38:24.837Z,-2.90
2018-03-07T05:40:52.478Z,-2.90
2018-03-07T05:43:20.043Z,-2.90
2018-03-07T05:45:48.299Z,-3.00
2018-03-07T05:48:15.812Z,-2.80
2018-03-07T05:50:42.514Z,-2.80
2018-03-07T05:53:09.602Z,-2.80
2018-03-07T05:55:36.720Z,-2.90
2018-03-07T05:58:04.323Z,-2.90
2018-03-07T06:00:31.374Z,-2.90
2018-03-07T06:02:59.556Z,-2.80
2018-03-07T06:05:26.298Z,-2.80
2018-03-07T06:07:53.150Z,-2.50
2018-03-07T06:10:20.100Z,-2.50
2018-03-07T06:12:47.761Z,-2.40
2018-03-07T06:15:14.824Z,-2.40
2018-03-07T06:17:41.564Z,-2.30
2018-03-07T06:20:08.726Z,-2.40
2018-03-07T06:22:36.028Z,-2.50
2018-03-07T06:25:03.548Z,-2.50
2018-03-07T06:27:30.392Z,-2.50
2018-03-07T06:29:57.901Z,-2.50
2018-03-07T06:32:24.701Z,-2.30
2018-03-07T06:34:51.503Z,-2.40
2018-03-07T06:37:18.138Z,-2.40
2018-03-07T06:39:44.840Z,-2.20
2018-03-07T06:42:12.417Z,-2.30
2018-03-07T06:44:41.621Z,-2.40
2018-03-07T06:47:09.447Z,-2.10
2018-03-07T06:49:37.407Z,-2.20
2018-03-07T06:52:04.391Z,-2.20
2018-03-07T06:54:31.984Z,-2.20
2018-03-07T06:56:59.895Z,-2.20
2018-03-07T06:59:26.643Z,-2.10
2018-03-07T07:01:53.443Z,-2.00
2018-03-07T07:04:20.132Z,-2.00
2018-03-07T07:06:46.843Z,-1.90
2018-03-07T07:09:13.991Z,-2.10
2018-03-07T07:11:40.614Z,-1.90
2018-03-07T07:14:07.992Z,-2.00
2018-03-07T07:16:34.802Z,-2.00
2018-03-07T07:19:02.402Z,-1.70
2018-03-07T07:21:29.365Z,-1.70
2018-03-07T07:23:56.463Z,-1.50
2018-03-07T07:26:24.993Z,-1.60
2018-03-07T07:28:53.461Z,-1.60
2018-03-07T07:31:20.672Z,-1.40
2018-03-07T07:33:48.776Z,-1.40
2018-03-07T07:36:16.073Z,-1.20
2018-03-07T07:38:43.843Z,-1.10
2018-03-07T07:41:11.713Z,-0.90
2018-03-07T07:43:38.674Z,-1.00
2018-03-07T07:46:05.392Z,-0.80
2018-03-07T07:48:32.844Z,-0.90
2018-03-07T07:51:00.218Z,-1.00
2018-03-07T07:53:27.283Z,-1.00
2018-03-07T07:55:54.391Z,-1.00
2018-03-07T07:58:21.216Z,-1.00
2018-03-07T08:00:48.176Z,-1.30
2018-03-07T08:03:14.831Z,-0.80
2018-03-07T08:05:42.247Z,-0.80
2018-03-07T08:08:08.851Z,-0.70
2018-03-07T08:10:36.233Z,-0.90
2018-03-07T08:13:03.204Z,-0.90
2018-03-07T08:15:30.052Z,-0.40
2018-03-07T08:17:58.232Z,-0.10
2018-03-07T08:20:26.208Z,-0.40
2018-03-07T08:22:53.050Z,-0.10
2018-03-07T08:25:20.317Z,0.20
2018-03-07T08:27:48.181Z,0.20
2018-03-07T08:30:15.850Z,0.00
2018-03-07T08:32:42.679Z,0.30
2018-03-07T08:35:10.060Z,0.40
2018-03-07T08:37:37.421Z,0.60
2018-03-07T08:40:05.089Z,0.00
2018-03-07T08:42:31.939Z,-0.10
2018-03-07T08:44:59.094Z,0.00
2018-03-07T08:47:25.819Z,0.30
2018-03-07T08:49:53.399Z,0.30
2018-03-07T08:52:20.767Z,0.30
2018-03-07T08:54:47.707Z,0.30
2018-03-07T08:57:15.070Z,0.40
2018-03-07T08:59:42.230Z,0.30
2018-03-07T09:02:09.177Z,0.70
2018-03-07T09:04:36.437Z,1.00
2018-03-07T09:07:03.438Z,0.70
2018-03-07T09:09:31.288Z,0.90
2018-03-07T09:11:57.930Z,0.60
2018-03-07T09:14:24.924Z,0.90
2018-03-07T09:16:52.843Z,0.70
2018-03-07T09:19:21.157Z,0.70
2018-03-07T09:21:48.217Z,0.60
2018-03-07T09:24:15.124Z,0.90
2018-03-07T09:26:41.874Z,0.60
2018-03-07T09:29:08.569Z,0.80
2018-03-07T09:31:36.523Z,0.50
2018-03-07T09:34:03.230Z,0.40
2018-03-07T09:36:30.149Z,0.80
2018-03-07T09:38:56.828Z,0.50
2018-03-07T09:41:23.508Z,0.00
2018-03-07T09:43:50.558Z,0.10
2018-03-07T09:46:17.262Z,0.40
2018-03-07T09:48:44.511Z,0.20
2018-03-07T09:51:14.192Z,0.30
2018-03-07T09:53:41.552Z,0.30
2018-03-07T09:56:09.014Z,0.10
2018-03-07T09:58:35.905Z,0.20
2018-03-07T10:01:02.681Z,0.40
2018-03-07T10:03:30.118Z,0.90
2018-03-07T10:05:57.475Z,0.60
2018-03-07T10:08:24.715Z,0.50
2018-03-07T10:10:52.589Z,0.90
2018-03-07T10:13:19.355Z,0.60
2018-03-07T10:15:46.403Z,0.40
2018-03-07T10:18:13.252Z,0.50
2018-03-07T10:20:40.205Z,0.40
2018-03-07T10:23:07.461Z,0.30
2018-03-07T10:25:36.030Z,0.80
2018-03-07T10:28:03.818Z,0.60
2018-03-07T10:30:30.644Z,0.60
2018-03-07T10:32:59.886Z,1.10
2018-03-07T10:35:27.026Z,1.10
2018-03-07T10:37:54.085Z,1.30
2018-03-07T10:40:21.341Z,0.80
2018-03-07T10:42:48.497Z,1.00
2018-03-07T10:45:16.367Z,0.70
2018-03-07T10:47:44.134Z,0.90
2018-03-07T10:50:11.697Z,0.50
2018-03-07T10:52:39.141Z,0.20
2018-03-07T10:55:07.852Z,0.60
2018-03-07T10:57:35.407Z,0.60
2018-03-07T11:00:02.818Z,0.50
2018-03-07T11:02:29.767Z,0.40
2018-03-07T11:04:57.907Z,0.10
2018-03-07T11:07:24.652Z,0.50
2018-03-07T11:09:51.399Z,0.80
2018-03-07T11:12:18.248Z,0.70
2018-03-07T11:14:45.307Z,1.30
2018-03-07T11:17:12.247Z,1.20
2018-03-07T11:19:39.306Z,1.10
2018-03-07T11:22:06.851Z,1.20
2018-03-07T11:24:33.619Z,1.00
2018-03-07T11:27:00.775Z,0.50
2018-03-07T11:29:27.622Z,0.60
2018-03-07T11:31:54.371Z,0.70
2018-03-07T11:34:21.353Z,0.80
2018-03-07T11:36:48.273Z,0.70
2018-03-07T11:39:15.327Z,1.00
2018-03-07T11:41:43.298Z,0.90
2018-03-07T11:44:11.275Z,1.00
2018-03-07T11:46:38.633Z,0.90
2018-03-07T11:49:06.403Z,1.00
2018-03-07T11:51:33.252Z,1.20
2018-03-07T11:54:00.405Z,1.50
2018-03-07T11:56:27.156Z,1.40
2018-03-07T11:58:54.208Z,1.40
2018-03-07T12:01:20.877Z,1.60
2018-03-07T12:03:50.154Z,1.60
2018-03-07T12:06:16.903Z,1.50
2018-03-07T12:08:43.757Z,1.40
2018-03-07T12:11:11.623Z,1.50
2018-03-07T12:13:38.934Z,1.30
2018-03-07T12:16:06.008Z,1.40
2018-03-07T12:18:33.486Z,1.50
2018-03-07T12:21:00.319Z,1.50
2018-03-07T12:23:27.809Z,1.40
2018-03-07T12:25:54.863Z,1.40
2018-03-07T12:28:22.837Z,1.50
2018-03-07T12:30:49.687Z,1.40
2018-03-07T12:33:16.722Z,1.10
2018-03-07T12:35:46.125Z,0.60
2018-03-07T12:38:13.606Z,0.50
2018-03-07T12:40:40.329Z,0.50
2018-03-07T12:43:08.227Z,0.50
2018-03-07T12:45:35.175Z,0.50
2018-03-07T12:48:03.461Z,0.60
2018-03-07T12:50:30.127Z,1.10
2018-03-07T12:52:56.848Z,0.90
2018-03-07T12:55:23.478Z,1.00
2018-03-07T12:57:51.468Z,1.20
2018-03-07T13:00:18.415Z,1.20
2018-03-07T13:02:45.677Z,1.10
2018-03-07T13:05:12.524Z,0.90
2018-03-07T13:07:39.576Z,0.50
2018-03-07T13:10:06.405Z,0.40
2018-03-07T13:12:33.990Z,0.20
2018-03-07T13:15:01.967Z,0.10
2018-03-07T13:17:29.939Z,0.10
2018-03-07T13:19:56.689Z,0.40
2018-03-07T13:22:24.047Z,0.50
2018-03-07T13:24:50.778Z,0.70
2018-03-07T13:27:17.950Z,0.50
2018-03-07T13:29:45.412Z,0.70
2018-03-07T13:32:12.262Z,0.90
2018-03-07T13:34:38.976Z,1.00
2018-03-07T13:37:06.671Z,1.10
2018-03-07T13:39:33.497Z,1.10
2018-03-07T13:42:00.882Z,1.30
2018-03-07T13:44:28.344Z,1.30
2018-03-07T13:46:55.754Z,1.50
2018-03-07T13:49:22.425Z,1.80
2018-03-07T13:51:49.403Z,1.70
2018-03-07T13:54:16.147Z,1.90
2018-03-07T13:56:42.999Z,1.60
2018-03-07T13:59:10.141Z,1.40
2018-03-07T14:01:37.960Z,1.60
2018-03-07T14:04:04.607Z,1.10
2018-03-07T14:06:31.545Z,0.70
2018-03-07T14:08:58.260Z,0.50
2018-03-07T14:11:25.040Z,0.40
2018-03-07T14:13:51.777Z,0.70
2018-03-07T14:16:19.006Z,0.60
2018-03-07T14:18:45.861Z,0.80
2018-03-07T14:21:12.610Z,0.60
2018-03-07T14:23:39.765Z,0.50
2018-03-07T14:26:06.714Z,0.40
2018-03-07T14:28:34.228Z,0.20
2018-03-07T14:31:00.916Z,0.20
2018-03-07T14:33:28.012Z,0.00
2018-03-07T14:35:55.016Z,-0.60
2018-03-07T14:38:22.825Z,-0.30
2018-03-07T14:40:49.496Z,-0.10
2018-03-07T14:43:16.210Z,0.10
2018-03-07T14:45:43.323Z,0.00
2018-03-07T14:48:11.035Z,0.00
2018-03-07T14:50:37.977Z,0.00
2018-03-07T14:53:05.562Z,0.10
2018-03-07T14:55:32.602Z,0.10
2018-03-07T14:57:59.224Z,0.20
2018-03-07T15:00:27.465Z,-0.20
2018-03-07T15:02:55.019Z,-0.80
2018-03-07T15:05:21.776Z,-0.80
2018-03-07T15:07:49.608Z,-1.10
2018-03-07T15:10:16.723Z,-1.20
2018-03-07T15:12:43.585Z,-1.00
2018-03-07T15:15:10.695Z,-1.10
2018-03-07T15:17:38.476Z,-1.10
2018-03-07T15:20:05.367Z,-1.10
2018-03-07T15:22:32.216Z,-1.20
2018-03-07T15:24:59.472Z,-1.30
2018-03-07T15:27:26.109Z,-1.40
2018-03-07T15:29:52.943Z,-1.30
2018-03-07T15:32:20.427Z,-1.40
2018-03-07T15:34:47.173Z,-1.40
2018-03-07T15:37:14.534Z,-1.50
2018-03-07T15:39:41.793Z,-1.50
2018-03-07T15:42:09.769Z,-1.50
2018-03-07T15:44:36.774Z,-1.70
2018-03-07T15:47:04.589Z,-1.70
2018-03-07T15:49:31.695Z,-1.50
2018-03-07T15:51:58.958Z,-1.50
2018-03-07T15:54:25.934Z,-1.40
2018-03-07T15:56:53.828Z,-1.90
2018-03-07T15:59:20.776Z,-1.90
2018-03-07T16:01:47.391Z,-1.90
2018-03-07T16:04:14.546Z,-2.10
2018-03-07T16:06:41.527Z,-2.20
2018-03-07T16:09:08.473Z,-2.00
2018-03-07T16:11:35.325Z,-2.20
2018-03-07T16:14:02.375Z,-2.50
2018-03-07T16:16:30.762Z,-2.50
2018-03-07T16:18:57.802Z,-2.50
2018-03-07T16:21:26.204Z,-2.50
2018-03-07T16:23:53.494Z,-2.50
2018-03-07T16:26:20.716Z,-2.50
2018-03-07T16:28:49.122Z,-2.60
2018-03-07T16:31:16.052Z,-2.60
2018-03-07T16:33:42.977Z,-2.70
2018-03-07T16:36:09.751Z,-2.70
2018-03-07T16:38:37.100Z,-2.80
2018-03-07T16:41:04.848Z,-2.60
2018-03-07T16:43:32.442Z,-2.90
2018-03-07T16:45:59.908Z,-2.80
2018-03-07T16:48:27.049Z,-2.80
2018-03-07T16:50:53.711Z,-2.70
2018-03-07T16:53:20.336Z,-2.70
2018-03-07T16:55:47.120Z,-2.70
2018-03-07T16:58:14.217Z,-2.60
2018-03-07T17:00:40.979Z,-2.70
2018-03-07T17:03:08.642Z,-2.80
2018-03-07T17:05:35.788Z,-2.80
2018-03-07T17:08:02.660Z,-2.90
2018-03-07T17:10:29.776Z,-2.90
2018-03-07T17:12:56.719Z,-2.80
2018-03-07T17:15:24.245Z,-2.60
2018-03-07T17:17:51.008Z,-2.50
2018-03-07T17:20:18.959Z,-2.70
2018-03-07T17:22:45.655Z,-2.70
2018-03-07T17:25:12.282Z,-2.70
2018-03-07T17:27:39.707Z,-3.00
2018-03-07T17:30:06.818Z,-3.00
2018-03-07T17:32:33.560Z,-3.00
2018-03-07T17:35:01.687Z,-3.00
2018-03-07T17:37:28.363Z,-2.90
2018-03-07T17:39:55.392Z,-3.00
2018-03-07T17:42:22.851Z,-3.10
2018-03-07T17:44:49.904Z,-3.00
2018-03-07T17:47:16.662Z,-3.10
2018-03-07T17:49:43.979Z,-3.10
2018-03-07T17:52:11.704Z,-3.10
2018-03-07T17:54:38.434Z,-3.10
2018-03-07T17:57:06.579Z,-2.90
2018-03-07T17:59:34.164Z,-2.90
2018-03-07T18:02:00.879Z,-2.90
2018-03-07T18:04:29.317Z,-3.00
2018-03-07T18:06:56.551Z,-3.00
2018-03-07T18:09:23.299Z,-3.00
2018-03-07T18:11:50.576Z,-3.10
2018-03-07T18:14:17.512Z,-3.20
2018-03-07T18:16:44.868Z,-3.20
2018-03-07T18:19:11.552Z,-3.20
2018-03-07T18:21:39.080Z,-3.20
2018-03-07T18:24:06.527Z,-3.20
2018-03-07T18:26:33.492Z,-3.20
2018-03-07T18:29:00.424Z,-3.10
2018-03-07T18:31:27.885Z,-3.00
2018-03-07T18:33:54.734Z,-3.00
2018-03-07T18:36:22.627Z,-3.00
2018-03-07T18:38:49.782Z,-3.00
2018-03-07T18:41:16.632Z,-2.90
2018-03-07T18:43:44.090Z,-2.90
2018-03-07T18:46:10.852Z,-2.80
2018-03-07T18:48:37.583Z,-2.80
2018-03-07T18:51:04.947Z,-2.90
2018-03-07T18:53:32.097Z,-2.80
2018-03-07T18:55:59.153Z,-2.80
2018-03-07T18:58:25.900Z,-2.90
2018-03-07T19:00:53.361Z,-2.90
2018-03-07T19:03:20.113Z,-2.90
2018-03-07T19:05:48.296Z,-2.70
2018-03-07T19:08:14.960Z,-2.80
2018-03-07T19:10:41.595Z,-2.70
2018-03-07T19:13:09.248Z,-2.80
2018-03-07T19:15:36.094Z,-2.70
2018-03-07T19:18:02.841Z,-2.70
2018-03-07T19:20:29.689Z,-2.50
2018-03-07T19:22:56.732Z,-2.60
2018-03-07T19:25:24.306Z,-2.60
2018-03-07T19:27:51.901Z,-2.70
2018-03-07T19:30:19.536Z,-2.60
2018-03-07T19:32:47.612Z,-2.60
2018-03-07T19:35:14.443Z,-2.60
2018-03-07T19:37:43.137Z,-2.70
2018-03-07T19:40:09.899Z,-2.70
2018-03-07T19:42:36.952Z,-2.70
2018-03-07T19:45:04.698Z,-2.60
2018-03-07T19:47:33.209Z,-2.70
2018-03-07T19:50:00.513Z,-2.70
2018-03-07T19:52:27.316Z,-2.70
2018-03-07T19:54:54.359Z,-2.60
2018-03-07T19:57:21.628Z,-2.60
2018-03-07T19:59:49.189Z,-2.80
2018-03-07T20:02:16.052Z,-2.80
2018-03-07T20:04:42.787Z,-2.80
2018-03-07T20:07:09.519Z,-2.70
2018-03-07T20:09:36.792Z,-2.70
2018-03-07T20:12:03.561Z,-2.70
2018-03-07T20:14:30.397Z,-2.60
2018-03-07T20:16:57.130Z,-2.70
2018-03-07T20:19:23.798Z,-2.70
2018-03-07T20:21:50.527Z,-2.70
2018-03-07T20:24:17.983Z,-2.80
2018-03-07T20:26:44.744Z,-2.80
2018-03-07T20:29:11.836Z,-2.80
2018-03-07T20:31:38.487Z,-2.80
2018-03-07T20:34:05.224Z,-2.90
2018-03-07T20:36:32.832Z,-2.90
2018-03-07T20:38:59.749Z,-2.80
2018-03-07T20:41:26.764Z,-2.90
2018-03-07T20:43:53.835Z,-2.90
2018-03-07T20:46:21.771Z,-2.70
2018-03-07T20:48:48.927Z,-2.70
2018-03-07T20:51:16.025Z,-2.60
2018-03-07T20:53:42.864Z,-2.60
2018-03-07T20:56:11.644Z,-2.50
2018-03-07T20:58:39.166Z,-2.70
2018-03-07T21:01:06.523Z,-2.60
2018-03-07T21:03:34.617Z,-2.60
2018-03-07T21:06:01.404Z,-2.60
2018-03-07T21:08:29.753Z,-2.70
2018-03-07T21:10:56.602Z,-2.70
2018-03-07T21:13:24.448Z,-2.80
2018-03-07T21:15:52.333Z,-2.70
2018-03-07T21:18:20.856Z,-2.60
2018-03-07T21:20:47.783Z,-2.60
2018-03-07T21:23:14.834Z,-2.60
2018-03-07T21:25:42.094Z,-2.50
2018-03-07T21:28:09.501Z,-2.50
2018-03-07T21:30:36.184Z,-2.60
2018-03-07T21:33:03.641Z,-2.70
2018-03-07T21:35:30.336Z,-2.70
2018-03-07T21:37:57.071Z,-2.80
2018-03-07T21:40:25.948Z,-2.70
2018-03-07T21:42:52.783Z,-2.80
2018-03-07T21:45:20.360Z,-2.80
2018-03-07T21:47:49.720Z,-2.70
2018-03-07T21:50:16.636Z,-2.80
2018-03-07T21:52:43.526Z,-2.70
2018-03-07T21:55:12.542Z,-2.80
2018-03-07T21:57:42.128Z,-2.70
2018-03-07T22:00:09.464Z,-2.80
2018-03-07T22:02:36.180Z,-2.70
2018-03-07T22:05:03.240Z,-2.80
2018-03-07T22:07:30.725Z,-2.80
2018-03-07T22:09:58.548Z,-2.90
2018-03-07T22:12:25.686Z,-2.90
2018-03-07T22:14:54.135Z,-2.80
2018-03-07T22:17:22.004Z,-2.80
2018-03-07T22:19:49.246Z,-2.90
2018-03-07T22:22:15.876Z,-2.90
2018-03-07T22:24:42.753Z,-2.90
2018-03-07T22:27:11.569Z,-3.00
2018-03-07T22:29:38.706Z,-3.00
2018-03-07T22:32:05.957Z,-3.00
2018-03-07T22:34:33.502Z,-2.90
2018-03-07T22:37:00.173Z,-3.00
2018-03-07T22:39:27.094Z,-3.00
2018-03-07T22:41:53.905Z,-2.90
2018-03-07T22:44:21.518Z,-2.80
2018-03-07T22:46:49.418Z,-2.90
2018-03-07T22:49:18.267Z,-2.80
2018-03-07T22:51:45.917Z,-2.80
2018-03-07T22:54:12.884Z,-2.80
2018-03-07T22:56:40.566Z,-2.80
2018-03-07T22:59:07.448Z,-2.80
2018-03-07T23:01:34.246Z,-2.80
2018-03-07T23:04:01.149Z,-2.80
2018-03-07T23:06:27.870Z,-2.90
2018-03-07T23:08:55.157Z,-3.00
2018-03-07T23:11:22.938Z,-3.00
2018-03-07T23:13:49.852Z,-3.00
2018-03-07T23:16:17.459Z,-2.80
2018-03-07T23:18:44.074Z,-2.90
2018-03-07T23:21:10.766Z,-2.90
2018-03-07T23:23:38.498Z,-2.70
2018-03-07T23:26:07.213Z,-2.80
2018-03-07T23:28:34.927Z,-2.70
2018-03-07T23:31:01.833Z,-2.80
2018-03-07T23:33:29.279Z,-2.80
2018-03-07T23:35:56.076Z,-2.80
2018-03-07T23:38:23.141Z,-2.80
2018-03-07T23:40:49.853Z,-2.90
2018-03-07T23:43:17.426Z,-2.90
2018-03-07T23:45:45.084Z,-2.90
2018-03-07T23:48:12.590Z,-2.90
2018-03-07T23:50:39.317Z,-3.00
2018-03-07T23:53:06.375Z,-3.00
2018-03-07T23:55:33.092Z,-2.90
2018-03-07T23:58:00.749Z,-2.90
